Time;durP1;ratioP1;P1;durP2;ratioP2;P2;SDS_P1;SDS_P2;PMS_P1;PMS_P2;Temp;Humidity;BMP_temperature;BMP_pressure;BME280_temperature;BME280_humidity;BME280_pressure;Samples;Min_cycle;Max_cycle;Signal;HPM_P1;HPM_P2
2022/01/12 00:01:30;;;;;;;25.98;14.32;;;;;;;2.29;100.00;103509.47;4981105;28;20418;-73
2022/01/12 00:03:55;;;;;;;26.45;13.68;;;;;;;2.21;100.00;103501.50;4980998;28;20415;-73
2022/01/12 00:06:21;;;;;;;25.00;12.73;;;;;;;2.19;100.00;103503.28;4982069;28;20290;-73
2022/01/12 00:08:48;;;;;;;28.67;15.00;;;;;;;2.29;100.00;103519.19;4980069;28;20496;-73
2022/01/12 00:11:13;;;;;;;29.08;13.88;;;;;;;2.46;100.00;103527.16;4981903;28;20148;-73
2022/01/12 00:13:39;;;;;;;31.02;13.07;;;;;;;2.27;100.00;103539.53;4984885;28;20026;-73
2022/01/12 00:16:04;;;;;;;27.63;13.63;;;;;;;2.18;100.00;103545.69;4980851;28;20031;-73
2022/01/12 00:18:31;;;;;;;27.77;15.02;;;;;;;2.21;100.00;103537.75;4982886;28;20022;-73
2022/01/12 00:20:56;;;;;;;28.75;13.82;;;;;;;2.32;100.00;103535.09;4982630;28;20072;-73
2022/01/12 00:23:22;;;;;;;30.27;13.18;;;;;;;2.46;100.00;103538.63;4980727;28;20038;-73
2022/01/12 00:34:02;;;;;;;;;;;;;;;2.30;100.00;103551.00;4984626;28;20381;-73
2022/01/12 00:36:29;;;;;;;25.25;12.15;;;;;;;2.32;100.00;103554.53;4983688;28;20373;-73
2022/01/12 00:38:54;;;;;;;27.10;11.77;;;;;;;2.35;100.00;103561.63;4979029;28;20030;-73
2022/01/12 00:41:20;;;;;;;25.25;12.68;;;;;;;2.32;100.00;103554.53;4964885;28;20045;-73
2022/01/12 00:43:48;;;;;;;23.55;12.05;;;;;;;2.33;100.00;103555.44;4982070;28;20027;-72
2022/01/12 00:46:14;;;;;;;27.98;12.80;;;;;;;2.32;100.00;103567.78;4984801;28;20069;-73
2022/01/12 00:48:40;;;;;;;24.45;12.00;;;;;;;2.31;100.00;103571.31;4980012;28;20327;-73
2022/01/12 00:51:05;;;;;;;24.05;12.45;;;;;;;2.27;100.00;103560.72;4983274;28;20029;-73
2022/01/12 00:53:31;;;;;;;21.23;11.70;;;;;;;2.24;100.00;103561.63;4981809;28;20066;-72
2022/01/12 00:55:56;;;;;;;21.38;12.00;;;;;;;2.20;100.00;103573.97;4982837;28;20026;-72
2022/01/12 00:58:22;;;;;;;30.52;13.48;;;;;;;2.17;100.00;103578.41;4965460;28;20117;-73
2022/01/12 01:00:47;;;;;;;31.52;13.40;;;;;;;1.99;100.00;103566.84;4979846;28;20036;-73
2022/01/12 01:03:13;;;;;;;26.05;13.00;;;;;;;1.97;100.00;103565.09;4967614;28;20040;-73
2022/01/12 01:05:38;;;;;;;27.60;12.73;;;;;;;1.90;100.00;103567.72;4981101;28;20049;-73
2022/01/12 01:08:04;;;;;;;31.55;13.88;;;;;;;1.92;100.00;103570.41;4978035;28;20385;-73
2022/01/12 01:10:50;;;;;;;28.65;15.23;;;;;;;1.94;100.00;103568.63;4981629;28;20157;-73
2022/01/12 01:13:20;;;;;;;29.90;13.27;;;;;;;1.93;100.00;103559.78;4981121;28;20027;-73
2022/01/12 01:26:24;;;;;;;37.55;16.95;;;;;;;1.93;100.00;103558.91;4983577;28;20049;-73
2022/01/12 01:28:49;;;;;;;44.33;20.30;;;;;;;1.63;100.00;103561.47;4982481;28;20030;-72
2022/01/12 01:31:15;;;;;;;51.60;21.40;;;;;;;1.86;100.00;103552.69;4981553;28;20038;-73
2022/01/12 01:33:40;;;;;;;40.13;17.85;;;;;;;1.77;100.00;103580.06;4984577;28;20109;-73
2022/01/12 01:36:05;;;;;;;37.65;17.05;;;;;;;1.56;100.00;103580.88;4981509;28;20109;-73
2022/01/12 01:38:31;;;;;;;56.60;23.85;;;;;;;1.83;100.00;103583.59;4983475;28;20058;-72
2022/01/12 01:40:56;;;;;;;44.05;19.25;;;;;;;1.55;100.00;103589.69;4980261;28;20472;-72
2022/01/12 01:54:07;;;;;;;56.63;22.38;;;;;;;1.55;100.00;103565.88;4980298;28;20072;-73
2022/01/12 01:56:32;;;;;;;73.35;27.35;;;;;;;1.73;100.00;103575.63;4981019;28;20038;-72
2022/01/12 01:58:57;;;;;;;81.15;26.98;;;;;;;1.95;100.00;103575.72;4981024;28;20037;-72
2022/01/12 02:01:23;;;;;;;74.50;27.55;;;;;;;1.80;100.00;103566.81;4982421;28;20031;-72
2022/01/12 02:03:48;;;;;;;49.53;20.42;;;;;;;1.69;100.00;103565.91;4979925;28;20077;-72
2022/01/12 02:06:15;;;;;;;77.63;30.90;;;;;;;1.73;100.00;103562.38;4978841;28;20038;-73
2022/01/12 02:08:41;;;;;;;73.28;30.67;;;;;;;1.80;100.00;103550.94;4982427;28;20422;-72
2022/01/12 02:11:06;;;;;;;65.10;26.88;;;;;;;1.93;100.00;103556.28;4977950;28;20532;-72
2022/01/12 02:13:32;;;;;;;81.45;30.75;;;;;;;1.98;100.00;103558.91;4980354;28;20081;-72
2022/01/12 02:15:58;;;;;;;65.68;25.83;;;;;;;1.81;100.00;103559.78;4982586;28;20030;-73
2022/01/12 02:40:27;;;;;;;76.72;30.63;;;;;;;1.64;100.00;103584.41;4981533;28;20029;-73
2022/01/12 02:51:29;;;;;;;52.13;21.52;;;;;;;1.56;100.00;103590.56;4982710;28;20072;-70
2022/01/12 02:53:54;;;;;;;52.38;20.77;;;;;;;1.61;100.00;103610.03;4980972;28;20484;-72
2022/01/12 02:56:23;;;;;;;54.78;19.88;;;;;;;1.55;100.00;103604.69;4963854;28;20034;-72
2022/01/12 02:58:50;;;;;;;52.75;21.15;;;;;;;1.46;100.00;103600.25;4979345;28;20040;-72
2022/01/12 03:04:04;;;;;;;43.58;18.02;;;;;;;1.56;100.00;103606.47;4982428;28;20030;-72
2022/01/12 03:06:34;;;;;;;60.63;22.63;;;;;;;1.71;100.00;103624.19;4978156;28;20037;-72
2022/01/12 03:09:04;;;;;;;55.00;19.80;;;;;;;1.61;100.00;103628.56;4979530;28;20512;-72
2022/01/12 03:11:29;;;;;;;55.97;21.17;;;;;;;1.63;100.00;103627.69;4982626;28;20030;-72
2022/01/12 03:13:55;;;;;;;55.38;20.95;;;;;;;1.67;100.00;103633.91;4978811;28;20603;-72
2022/01/12 03:16:24;;;;;;;50.05;20.20;;;;;;;1.67;100.00;103628.59;4981024;28;20081;-72
2022/01/12 03:18:55;;;;;;;49.95;18.70;;;;;;;1.76;100.00;103641.88;4978375;28;20030;-72
2022/01/12 03:21:23;;;;;;;46.63;19.60;;;;;;;1.85;100.00;103646.34;4966338;28;20026;-70
2022/01/12 03:23:49;;;;;;;43.08;16.42;;;;;;;1.90;100.00;103649.00;4976632;28;20065;-72
2022/01/12 03:26:15;;;;;;;55.15;19.77;;;;;;;1.87;100.00;103647.19;4966182;28;20369;-72
2022/01/12 03:28:43;;;;;;;54.97;19.45;;;;;;;1.89;100.00;103648.09;4980800;28;20044;-72
2022/01/12 03:31:17;;;;;;;50.47;19.45;;;;;;;1.93;100.00;103651.66;4979796;28;20053;-72
2022/01/12 03:36:27;;;;;;;57.25;22.73;;;;;;;1.87;100.00;103641.03;4978831;28;20045;-73
2022/01/12 03:38:55;;;;;;;54.22;20.40;;;;;;;1.96;100.00;103659.63;4981140;28;20523;-73
2022/01/12 03:41:22;;;;;;;54.25;20.92;;;;;;;1.97;100.00;103657.84;4979982;28;20038;-72
2022/01/12 03:43:47;;;;;;;54.90;20.88;;;;;;;1.98;100.00;103654.31;4977151;28;20022;-72
2022/01/12 03:46:14;;;;;;;52.47;20.80;;;;;;;1.98;100.00;103655.22;4976399;28;20034;-72
2022/01/12 03:48:40;;;;;;;50.28;19.60;;;;;;;1.98;100.00;103649.03;4978789;28;20053;-73
2022/01/12 03:51:05;;;;;;;57.22;20.92;;;;;;;1.94;100.00;103658.72;4981893;28;20038;-73
2022/01/12 03:53:31;;;;;;;52.20;20.33;;;;;;;1.93;100.00;103638.41;4977080;28;20033;-73
2022/01/12 03:55:56;;;;;;;50.20;20.23;;;;;;;2.04;100.00;103654.34;4977132;28;20030;-73
2022/01/12 03:58:21;;;;;;;52.28;20.52;;;;;;;2.06;100.00;103665.84;4981750;28;20030;-72
2022/01/12 04:00:47;;;;;;;50.70;19.90;;;;;;;2.05;100.00;103672.03;4977876;28;20030;-72
2022/01/12 04:03:14;;;;;;;63.42;21.63;;;;;;;2.08;100.00;103664.94;4981111;28;20043;-73
2022/01/12 04:08:18;;;;;;;55.15;19.67;;;;;;;2.11;100.00;103664.09;4976008;28;20081;-73
2022/01/12 04:08:25;;;;;;;51.28;20.55;;;;;;;2.10;100.00;103667.63;4981411;28;20129;-73
2022/01/12 04:10:57;;;;;;;62.03;22.95;;;;;;;1.97;100.00;103645.50;4977114;28;20031;-73
2022/01/12 04:13:24;;;;;;;57.97;21.40;;;;;;;1.97;100.00;103657.84;4980525;28;20034;-72
2022/01/12 04:15:52;;;;;;;48.45;20.77;;;;;;;2.01;100.00;103680.84;4980012;28;20378;-72
2022/01/12 04:18:18;;;;;;;51.97;21.17;;;;;;;1.91;100.00;103656.06;4977252;28;20036;-72
2022/01/12 04:20:48;;;;;;;61.58;22.15;;;;;;;1.99;100.00;103683.47;4977458;28;20038;-72
2022/01/12 04:23:18;;;;;;;67.80;24.67;;;;;;;1.85;100.00;103672.84;4977393;28;20034;-72
2022/01/12 04:25:48;;;;;;;65.82;23.77;;;;;;;1.74;100.00;103661.28;4982435;28;20473;-72
2022/01/12 04:28:14;;;;;;;65.65;24.38;;;;;;;1.98;100.00;103671.13;4978626;28;20030;-72
2022/01/12 04:30:40;;;;;;;57.10;22.33;;;;;;;1.98;100.00;103667.56;4978458;28;20070;-72
2022/01/12 04:33:05;;;;;;;67.22;25.25;;;;;;;1.88;100.00;103645.44;4977191;28;20121;-72
2022/01/12 04:35:35;;;;;;;85.97;27.98;;;;;;;1.90;100.00;103647.22;4974050;28;20077;-73
2022/01/12 04:38:01;;;;;;;91.00;31.10;;;;;;;2.09;100.00;103642.00;4982127;28;20022;-73
2022/01/12 04:40:26;;;;;;;76.05;27.08;;;;;;;1.93;100.00;103641.06;4978284;28;20033;-72
2022/01/12 04:42:56;;;;;;;95.63;29.88;;;;;;;2.05;100.00;103646.38;4980063;28;20121;-73
2022/01/12 04:50:19;;;;;;;69.45;25.05;;;;;;;1.72;100.00;103634.78;4981757;28;20467;-70
2022/01/12 04:52:44;;;;;;;70.75;23.55;;;;;;;1.81;100.00;103655.16;4984150;28;20507;-72
2022/01/12 04:55:10;;;;;;;71.18;25.92;;;;;;;1.82;100.00;103645.41;4984275;28;20538;-72
2022/01/12 04:57:35;;;;;;;76.93;24.20;;;;;;;1.80;100.00;103624.25;4981689;28;20088;-72
2022/01/12 05:00:08;;;;;;;70.88;23.35;;;;;;;1.96;100.00;103646.38;4982560;28;20562;-72
2022/01/12 05:08:34;;;;;;;;;;;;;;;1.83;100.00;103652.50;4977895;28;20080;-72
2022/01/12 05:13:50;;;;;;;74.68;26.33;;;;;;;1.85;100.00;103649.00;4998998;28;20068;-69
2022/01/12 05:16:17;;;;;;;63.78;23.90;;;;;;;1.92;100.00;103660.50;4982842;28;20057;-69
2022/01/12 05:18:44;;;;;;;61.58;23.38;;;;;;;1.96;100.00;103659.63;4982511;28;20038;-71
2022/01/12 05:21:10;;;;;;;66.45;23.85;;;;;;;1.96;100.00;103662.28;4984977;28;20092;-72
2022/01/12 05:23:36;;;;;;;64.28;24.77;;;;;;;2.00;100.00;103660.50;4979336;28;20037;-72
2022/01/12 05:26:03;;;;;;;73.43;25.60;;;;;;;2.00;100.00;103663.16;4982602;28;20011;-72
2022/01/12 05:28:28;;;;;;;72.15;25.38;;;;;;;2.01;100.00;103671.09;4981518;28;20041;-72
2022/01/12 05:30:55;;;;;;;66.95;25.02;;;;;;;2.01;100.00;103664.94;4982906;28;20030;-72
2022/01/12 05:33:23;;;;;;;56.25;22.35;;;;;;;2.00;100.00;103671.97;4981426;28;20037;-72
2022/01/12 05:35:50;;;;;;;69.72;25.67;;;;;;;2.04;100.00;103673.78;4981047;28;20088;-72
2022/01/12 05:38:15;;;;;;;78.95;27.65;;;;;;;1.95;100.00;103681.72;4983199;28;20042;-72
2022/01/12 05:40:47;;;;;;;67.25;24.60;;;;;;;1.94;100.00;103677.28;4980956;28;20168;-72
2022/01/12 05:43:14;;;;;;;83.07;27.00;;;;;;;1.92;100.00;103674.59;4979805;28;20035;-72
2022/01/12 05:45:40;;;;;;;76.10;26.58;;;;;;;1.90;100.00;103678.16;4982990;28;20548;-72
2022/01/12 05:50:52;;;;;;;83.47;28.15;;;;;;;1.88;100.00;103671.94;4938554;28;20058;-72
2022/01/12 05:53:18;;;;;;;72.85;24.17;;;;;;;1.92;100.00;103673.75;4978337;28;20282;-75
2022/01/12 05:55:43;;;;;;;63.10;24.08;;;;;;;1.96;100.00;103667.56;4983946;28;20534;-77
2022/01/12 05:58:09;;;;;;;72.60;25.00;;;;;;;1.97;100.00;103666.69;4968310;28;20443;-72
2022/01/12 06:00:35;;;;;;;86.40;27.38;;;;;;;1.92;100.00;103663.13;4986751;28;20172;-71
2022/01/12 06:03:00;;;;;;;86.30;28.85;;;;;;;1.98;100.00;103664.91;4981840;28;20030;-72
2022/01/12 06:05:28;;;;;;;67.68;25.92;;;;;;;1.93;100.00;103671.09;4982281;28;20030;-73
2022/01/12 06:07:54;;;;;;;75.43;25.35;;;;;;;1.97;100.00;103673.75;4982557;28;20396;-73
2022/01/12 06:10:23;;;;;;;68.82;23.63;;;;;;;1.97;100.00;103679.03;4981378;28;20034;-73
2022/01/12 06:12:49;;;;;;;63.28;24.05;;;;;;;2.01;100.00;103680.84;4979078;28;20113;-73
2022/01/12 06:15:15;;;;;;;70.90;24.52;;;;;;;1.98;100.00;103678.16;4980242;28;20061;-73
2022/01/12 06:17:40;;;;;;;68.22;24.17;;;;;;;1.94;100.00;103671.97;4980428;28;20129;-73
2022/01/12 06:20:06;;;;;;;77.00;26.70;;;;;;;1.98;100.00;103684.38;4981983;28;20485;-72
2022/01/12 06:22:32;;;;;;;55.78;22.33;;;;;;;1.97;100.00;103689.66;4977013;28;20030;-73
2022/01/12 06:24:59;;;;;;;77.72;25.20;;;;;;;2.02;100.00;103709.97;4979401;28;20041;-72
2022/01/12 06:27:28;;;;;;;58.63;22.48;;;;;;;2.06;100.00;103713.56;4980953;28;20461;-76
2022/01/12 06:32:53;;;;;;;64.90;23.58;;;;;;;2.08;100.00;103725.91;4947917;28;20123;-72
2022/01/12 06:35:18;;;;;;;57.88;23.58;;;;;;;2.14;100.00;103730.34;4987998;28;20045;-72
2022/01/12 06:37:44;;;;;;;60.83;22.75;;;;;;;2.13;100.00;103735.66;4977347;28;20026;-72
2022/01/12 06:40:13;;;;;;;70.70;24.75;;;;;;;2.03;100.00;103745.34;4982068;28;20030;-72
2022/01/12 06:42:38;;;;;;;63.50;23.65;;;;;;;2.03;100.00;103737.38;4983202;28;20040;-69
2022/01/12 06:45:04;;;;;;;72.07;25.05;;;;;;;2.10;100.00;103742.72;4983321;28;20026;-69
2022/01/12 06:47:29;;;;;;;73.05;27.38;;;;;;;2.08;100.00;103744.47;4988384;28;20543;-69
2022/01/12 06:49:54;;;;;;;59.95;22.17;;;;;;;2.11;100.00;103738.31;4980409;28;20093;-70
2022/01/12 06:52:20;;;;;;;66.25;23.80;;;;;;;2.06;100.00;103737.41;4985004;28;20034;-70
2022/01/12 06:54:45;;;;;;;66.25;23.20;;;;;;;2.11;100.00;103748.91;4978282;28;20450;-72
2022/01/12 06:57:10;;;;;;;63.75;23.13;;;;;;;2.17;100.00;103748.94;4982705;28;20061;-70
2022/01/12 06:59:36;;;;;;;61.45;23.80;;;;;;;2.18;100.00;103749.81;4983003;28;20026;-70
2022/01/12 07:02:01;;;;;;;66.47;24.48;;;;;;;2.17;100.00;103754.22;4986188;28;20452;-70
2022/01/12 07:04:26;;;;;;;64.47;24.77;;;;;;;2.18;100.00;103756.00;4962436;28;20085;-71
2022/01/12 07:06:52;;;;;;;54.90;23.75;;;;;;;2.14;100.00;103756.84;4984455;28;20112;-72
2022/01/12 07:09:17;;;;;;;58.88;22.98;;;;;;;2.20;100.00;103769.28;4978736;28;20034;-72
2022/01/12 07:11:42;;;;;;;72.28;24.67;;;;;;;2.18;100.00;103763.09;4986744;28;20113;-72
2022/01/12 07:14:08;;;;;;;57.30;22.88;;;;;;;2.17;100.00;103769.25;4977792;28;20034;-69
2022/01/12 07:16:33;;;;;;;64.70;22.88;;;;;;;2.21;100.00;103763.09;4980956;28;20027;-71
2022/01/12 07:18:59;;;;;;;58.58;22.88;;;;;;;2.24;100.00;103768.41;4980808;28;20022;-72
2022/01/12 07:21:25;;;;;;;62.95;22.85;;;;;;;2.30;100.00;103768.41;4984528;28;20030;-72
2022/01/12 07:23:54;;;;;;;50.47;21.77;;;;;;;2.28;100.00;103762.22;4976197;28;20034;-71
2022/01/12 07:26:20;;;;;;;95.13;32.47;;;;;;;2.38;100.00;103787.03;4983091;28;20097;-72
2022/01/12 07:28:46;;;;;;;105.28;34.83;;;;;;;2.36;100.00;103784.38;4977235;28;20105;-71
2022/01/12 07:31:11;;;;;;;91.93;30.45;;;;;;;2.37;100.00;103795.88;4977092;28;20482;-71
2022/01/12 07:33:36;;;;;;;73.22;29.63;;;;;;;2.33;100.00;103797.59;4983319;28;20377;-72
2022/01/12 07:36:02;;;;;;;122.28;57.33;;;;;;;2.40;100.00;103796.75;4981756;28;20555;-70
2022/01/12 07:38:27;;;;;;;64.25;24.35;;;;;;;2.39;100.00;103794.09;4980065;28;20030;-71
2022/01/12 07:40:52;;;;;;;81.32;25.00;;;;;;;2.34;100.00;103796.72;4979538;28;20030;-72
2022/01/12 07:43:18;;;;;;;63.00;22.23;;;;;;;2.21;100.00;103779.88;4981020;28;20393;-72
2022/01/12 07:45:43;;;;;;;63.28;23.35;;;;;;;2.37;100.00;103806.47;4979473;28;20626;-72
2022/01/12 07:48:09;;;;;;;64.10;23.00;;;;;;;2.39;100.00;103810.00;4979277;28;20137;-69
2022/01/12 07:50:34;;;;;;;63.33;26.30;;;;;;;2.34;100.00;103809.13;4976597;28;21656;-71
2022/01/12 07:52:59;;;;;;;63.92;23.75;;;;;;;2.40;100.00;103812.69;4978240;28;20026;-72
2022/01/12 07:55:25;;;;;;;61.25;25.65;;;;;;;2.36;100.00;103812.66;4976845;28;20050;-71
2022/01/12 07:57:51;;;;;;;82.95;32.53;;;;;;;2.40;100.00;103822.38;4981881;28;20027;-71
2022/01/12 08:00:16;;;;;;;110.88;41.90;;;;;;;2.40;100.00;103833.88;4980169;28;20069;-71
2022/01/12 08:02:42;;;;;;;110.90;40.05;;;;;;;2.35;100.00;103842.72;4991300;28;20411;-71
2022/01/12 08:05:08;;;;;;;94.20;31.58;;;;;;;2.35;100.00;103846.22;4978098;28;20030;-71
2022/01/12 08:07:36;;;;;;;83.07;26.35;;;;;;;2.35;100.00;103848.88;4984749;28;20511;-72
2022/01/12 08:10:03;;;;;;;92.72;28.77;;;;;;;2.31;100.00;103847.09;4977391;28;20031;-72
2022/01/12 08:12:28;;;;;;;78.85;31.92;;;;;;;2.37;100.00;103859.53;4986298;28;20473;-71
2022/01/12 08:14:54;;;;;;;72.90;26.80;;;;;;;2.38;100.00;103854.22;4981424;28;20178;-71
2022/01/12 08:17:19;;;;;;;74.15;24.50;;;;;;;2.43;100.00;103856.88;4989344;28;20034;-72
2022/01/12 08:19:44;;;;;;;76.90;25.17;;;;;;;2.45;100.00;103860.41;4982317;28;20116;-70
2022/01/12 08:22:10;;;;;;;84.80;27.58;;;;;;;2.41;100.00;103858.63;4986794;28;20473;-72
2022/01/12 08:24:35;;;;;;;95.07;26.65;;;;;;;2.47;100.00;103863.09;4989356;28;20524;-72
2022/01/12 08:27:00;;;;;;;84.93;24.23;;;;;;;2.47;100.00;103857.78;4985907;28;20041;-72
2022/01/12 08:29:28;;;;;;;98.70;26.77;;;;;;;2.48;100.00;103862.22;4994074;28;20168;-71
2022/01/12 08:31:53;;;;;;;80.60;25.45;;;;;;;2.55;100.00;103870.22;4984413;28;20133;-71
2022/01/12 08:34:19;;;;;;;86.00;25.75;;;;;;;2.53;100.00;103868.41;4996032;28;20563;-71
2022/01/12 08:36:44;;;;;;;71.68;19.85;;;;;;;2.57;100.00;103874.63;4982956;28;20030;-72
2022/01/12 08:39:09;;;;;;;81.35;21.88;;;;;;;2.59;100.00;103870.22;4995223;28;20033;-72
2022/01/12 08:41:36;;;;;;;98.00;25.08;;;;;;;2.68;100.00;103865.84;4980831;28;20045;-71
2022/01/12 08:44:02;;;;;;;83.53;26.17;;;;;;;2.72;100.00;103865.84;4991382;28;20025;-71
2022/01/12 08:46:28;;;;;;;80.32;24.23;;;;;;;2.72;100.00;103864.06;4982197;28;20097;-71
2022/01/12 08:48:53;;;;;;;109.05;26.88;;;;;;;2.69;100.00;103872.03;4985666;28;20112;-71
2022/01/12 08:51:18;;;;;;;94.45;27.55;;;;;;;2.60;100.00;103869.34;4983954;28;20477;-72
2022/01/12 08:53:44;;;;;;;65.35;20.00;;;;;;;2.67;100.00;103872.03;4983788;28;20057;-72
2022/01/12 08:56:09;;;;;;;91.68;21.50;;;;;;;2.70;100.00;103869.41;4980047;28;20463;-72
2022/01/12 08:58:37;;;;;;;72.50;20.20;;;;;;;2.80;100.00;103864.09;4980158;28;20039;-69
2022/01/12 09:01:03;;;;;;;49.55;15.00;;;;;;;2.96;100.00;103868.59;4985788;28;20040;-71
2022/01/12 09:03:30;;;;;;;62.70;17.33;;;;;;;2.97;100.00;103881.00;4989487;28;20062;-72
2022/01/12 09:05:55;;;;;;;65.20;17.60;;;;;;;2.79;100.00;103862.31;4981766;28;20030;-71
2022/01/12 09:08:20;;;;;;;72.82;18.17;;;;;;;2.91;100.00;103882.75;5014964;22;20496;-72
2022/01/12 09:10:46;;;;;;;60.83;16.80;;;;;;;2.94;100.00;103898.66;4989281;28;20136;-72
2022/01/12 09:13:11;;;;;;;56.08;17.52;;;;;;;2.97;100.00;103896.00;4990837;28;20123;-73
2022/01/12 09:15:36;;;;;;;80.03;20.65;;;;;;;2.85;100.00;103891.53;4988307;28;20048;-73
2022/01/12 09:18:02;;;;;;;66.45;19.58;;;;;;;3.02;100.00;103902.22;5004532;28;20140;-70
2022/01/12 09:20:28;;;;;;;75.82;22.25;;;;;;;2.76;100.00;103916.28;5002447;28;20033;-70
2022/01/12 09:22:54;;;;;;;79.15;22.33;;;;;;;2.79;100.00;103915.41;5002821;28;20053;-75
2022/01/12 09:25:20;;;;;;;69.18;19.00;;;;;;;2.61;100.00;103910.91;4988282;28;20029;-73
2022/01/12 09:27:45;;;;;;;66.88;18.13;;;;;;;2.70;100.00;103930.41;5008019;28;20482;-73
2022/01/12 09:30:12;;;;;;;72.40;18.48;;;;;;;2.85;100.00;103923.41;5011962;28;20030;-73
2022/01/12 09:32:38;;;;;;;53.97;15.55;;;;;;;2.82;100.00;103928.69;5004307;28;20033;-73
2022/01/12 09:35:03;;;;;;;59.80;17.88;;;;;;;2.85;100.00;103920.75;5003183;28;20064;-74
2022/01/12 09:37:29;;;;;;;59.90;16.35;;;;;;;2.76;100.00;103934.00;5004584;28;20069;-74
2022/01/12 09:39:55;;;;;;;59.83;16.85;;;;;;;2.98;100.00;103942.91;5006320;28;20044;-74
2022/01/12 09:42:20;;;;;;;54.80;17.45;;;;;;;3.06;100.00;103950.91;5003578;28;20057;-71
2022/01/12 09:44:47;;;;;;;51.45;15.82;;;;;;;3.07;100.00;103953.59;5003266;28;20071;-71
2022/01/12 09:47:14;;;;;;;59.38;15.48;;;;;;;3.10;100.00;103940.31;5004764;28;20476;-70
2022/01/12 09:49:42;;;;;;;72.70;18.85;;;;;;;3.12;100.00;103951.84;5004532;28;20038;-71
2022/01/12 09:52:07;;;;;;;54.85;16.33;;;;;;;3.22;100.00;103955.41;5005071;28;20437;-74
2022/01/12 09:54:32;;;;;;;64.78;15.93;;;;;;;3.15;100.00;103958.91;5001787;28;20448;-73
2022/01/12 09:56:58;;;;;;;60.95;16.45;;;;;;;3.13;100.00;103947.41;5002995;28;20029;-73
2022/01/12 09:59:24;;;;;;;56.55;16.25;;;;;;;3.16;100.00;103960.69;4989860;28;20453;-72
2022/01/12 10:01:51;;;;;;;62.72;16.83;;;;;;;3.13;100.00;103968.63;5003320;28;20034;-71
2022/01/12 10:04:19;;;;;;;66.03;17.33;;;;;;;3.17;100.00;103967.78;5002152;28;20466;-72
2022/01/12 10:06:46;;;;;;;52.83;16.10;;;;;;;3.17;100.00;103965.13;5007822;28;20036;-72
2022/01/12 10:09:13;;;;;;;46.92;15.25;;;;;;;3.08;100.00;103975.69;4989077;28;20145;-72
2022/01/12 10:12:00;;;;;;;52.92;15.85;;;;;;;3.04;100.00;103973.94;5000079;28;20038;-72
2022/01/12 10:14:38;;;;;;;53.00;15.52;;;;;;;2.90;100.00;103958.81;5005714;28;20124;-72
2022/01/12 10:17:03;;;;;;;58.38;16.77;;;;;;;3.03;100.00;103966.84;5003549;28;20057;-72
2022/01/12 10:19:30;;;;;;;45.85;15.23;;;;;;;3.10;100.00;103969.53;5003631;28;20134;-72
2022/01/12 10:21:57;;;;;;;63.53;15.02;;;;;;;3.14;100.00;103967.75;5003277;28;20040;-76
2022/01/12 10:24:24;;;;;;;57.50;15.95;;;;;;;3.10;100.00;103960.66;5003042;28;20232;-68
2022/01/12 10:26:51;;;;;;;56.85;15.60;;;;;;;3.21;100.00;103960.69;5003984;28;20029;-69
2022/01/12 10:29:19;;;;;;;61.80;16.33;;;;;;;3.23;100.00;103962.50;5008758;28;20029;-70
2022/01/12 10:31:52;;;;;;;59.33;16.17;;;;;;;3.24;100.00;103969.56;5003167;28;20029;-70
2022/01/12 10:34:20;;;;;;;51.58;15.23;;;;;;;3.32;100.00;103971.34;5002608;28;20022;-70
2022/01/12 10:36:47;;;;;;;55.10;16.27;;;;;;;3.40;100.00;103974.91;5003536;28;20046;-68
2022/01/12 10:39:14;;;;;;;48.78;15.45;;;;;;;3.37;100.00;103974.91;5003984;28;20040;-68
2022/01/12 10:42:01;;;;;;;59.10;16.05;;;;;;;3.24;100.00;103977.53;5003166;28;20034;-68
2022/01/12 10:44:31;;;;;;;65.50;18.70;;;;;;;3.33;100.00;103978.44;5001744;28;20171;-67
2022/01/12 10:47:06;;;;;;;66.13;17.25;;;;;;;3.33;100.00;103983.75;5002801;28;20108;-68
2022/01/12 10:49:33;;;;;;;60.72;17.77;;;;;;;3.25;100.00;103971.34;5001443;28;20461;-70
2022/01/12 10:51:59;;;;;;;62.63;16.50;;;;;;;3.33;100.00;103975.78;5003894;28;20033;-68
2022/01/12 10:54:24;;;;;;;55.10;15.77;;;;;;;3.32;100.00;103984.63;5002949;28;20038;-69
2022/01/12 10:56:51;;;;;;;73.60;18.90;;;;;;;3.38;100.00;103984.66;5003338;28;20516;-70
2022/01/12 10:59:21;;;;;;;75.85;18.70;;;;;;;3.40;100.00;103973.16;5000886;28;20030;-70
2022/01/12 11:01:46;;;;;;;77.10;17.33;;;;;;;3.53;100.00;103967.88;5005349;28;20088;-70
2022/01/12 11:04:12;;;;;;;57.75;16.08;;;;;;;3.56;100.00;103975.84;5002948;28;20480;-70
2022/01/12 11:06:37;;;;;;;69.90;18.10;;;;;;;3.62;100.00;103977.63;5001481;28;20061;-71
2022/01/12 11:09:04;;;;;;;71.82;17.33;;;;;;;3.69;100.00;103979.41;5001383;28;20018;-71
2022/01/12 11:11:29;;;;;;;93.97;31.67;;;;;;;3.74;100.00;103980.31;5003403;28;20480;-71
2022/01/12 11:13:55;;;;;;;71.65;21.17;;;;;;;3.65;100.00;103983.84;5004174;28;20036;-70
2022/01/12 11:16:26;;;;;;;51.88;17.10;;;;;;;3.66;100.00;103990.94;5003573;28;20076;-71
2022/01/12 11:18:54;;;;;;;60.60;16.25;;;;;;;3.67;100.00;103991.81;5002616;28;20021;-71
2022/01/12 11:21:34;;;;;;;60.15;16.40;;;;;;;3.81;100.00;103992.75;5003943;28;20091;-71
2022/01/12 11:24:00;;;;;;;56.42;17.10;;;;;;;3.66;100.00;103990.03;5000920;28;20358;-68
2022/01/12 11:26:28;;;;;;;61.55;19.33;;;;;;;3.59;100.00;103976.72;5002328;28;20072;-70
2022/01/12 11:28:54;;;;;;;63.72;18.15;;;;;;;3.75;100.00;103985.63;5007230;28;20767;-68
2022/01/12 11:31:32;;;;;;;58.47;15.73;;;;;;;3.81;100.00;103984.78;4999688;28;20442;-68
2022/01/12 11:33:58;;;;;;;67.65;17.05;;;;;;;3.77;100.00;103982.97;5004199;28;20036;-68
2022/01/12 11:36:27;;;;;;;62.30;16.63;;;;;;;3.91;100.00;103975.03;5001325;28;20037;-70
2022/01/12 11:39:00;;;;;;;58.38;17.45;;;;;;;3.87;100.00;103978.56;5004039;28;20049;-70
2022/01/12 11:41:28;;;;;;;53.42;16.10;;;;;;;3.80;100.00;103967.03;5001953;28;20156;-71
2022/01/12 11:44:12;;;;;;;55.63;15.63;;;;;;;3.85;100.00;103967.03;5003940;28;20037;-71
2022/01/12 11:46:46;;;;;;;61.97;16.80;;;;;;;3.67;100.00;103963.47;4998599;28;20623;-71
2022/01/12 11:49:26;;;;;;;56.20;15.95;;;;;;;3.69;100.00;103945.78;5002572;28;20437;-71
2022/01/12 11:51:51;;;;;;;57.92;16.65;;;;;;;3.55;100.00;103948.41;5001764;28;20022;-71
2022/01/12 11:54:19;;;;;;;62.50;21.60;;;;;;;3.63;100.00;103968.78;5006774;28;20060;-71
2022/01/12 11:56:55;;;;;;;59.83;19.80;;;;;;;3.59;100.00;103973.22;5006349;28;20033;-71
2022/01/12 11:59:22;;;;;;;63.05;20.90;;;;;;;3.68;100.00;103972.34;5005691;28;20386;-71
2022/01/12 12:01:50;;;;;;;51.92;17.95;;;;;;;3.68;100.00;103977.66;5008199;28;20084;-68
2022/01/12 12:04:26;;;;;;;64.78;18.73;;;;;;;3.93;100.00;103981.25;5009093;28;20112;-69
2022/01/12 12:07:12;;;;;;;59.10;16.52;;;;;;;3.62;100.00;103965.25;5006299;28;20372;-71
2022/01/12 12:09:48;;;;;;;59.75;17.77;;;;;;;3.71;100.00;103972.34;5012970;28;20140;-71
2022/01/12 12:12:31;;;;;;;42.42;14.25;;;;;;;3.63;100.00;103982.06;5007660;28;20044;-71
2022/01/12 12:14:59;;;;;;;51.85;14.48;;;;;;;3.69;100.00;103980.31;5009681;28;20036;-71
2022/01/12 12:17:28;;;;;;;47.30;15.20;;;;;;;3.39;100.00;103965.19;5007669;28;20109;-71
2022/01/12 12:19:54;;;;;;;51.38;16.40;;;;;;;3.42;100.00;103974.06;5012252;28;20022;-71
2022/01/12 12:22:21;;;;;;;40.92;14.90;;;;;;;3.62;100.00;103975.88;5009489;28;20033;-71
2022/01/12 12:24:52;;;;;;;47.70;15.02;;;;;;;3.70;100.00;103978.53;5004039;28;20120;-71
2022/01/12 12:27:19;;;;;;;53.80;17.63;;;;;;;3.68;100.00;103980.31;5006292;28;20443;-71
2022/01/12 12:29:44;;;;;;;45.47;14.20;;;;;;;3.74;100.00;103981.19;5005766;28;20033;-72
2022/01/12 12:32:13;;;;;;;50.40;16.58;;;;;;;3.77;100.00;103977.66;5007543;28;20049;-70
2022/01/12 12:34:39;;;;;;;44.88;13.70;;;;;;;3.84;100.00;103970.59;5004390;28;20026;-70